createdAt,value
2023-03-01T00:02:23.785Z,99980.59
2023-03-01T00:04:50.577Z,99986.88
2023-03-01T00:07:17.668Z,99980.56
2023-03-01T00:09:46.883Z,99983.50
2023-03-01T00:12:13.988Z,99980.84
2023-03-01T00:14:40.931Z,99983.47
2023-03-01T00:17:08.196Z,99982.56
2023-03-01T00:19:35.246Z,99980.13
2023-03-01T00:22:02.322Z,99993.38
2023-03-01T00:24:29.045Z,99988.19
2023-03-01T00:26:58.860Z,99987.41
2023-03-01T00:29:25.681Z,99988.31
2023-03-01T00:31:52.851Z,99990.16
2023-03-01T00:34:19.706Z,99991.09
2023-03-01T00:36:46.796Z,99984.13
2023-03-01T00:39:15.052Z,99990.22
2023-03-01T00:41:42.768Z,99979.66
2023-03-01T00:44:09.818Z,99977.03
2023-03-01T00:46:36.994Z,99969.19
2023-03-01T00:49:05.511Z,99971.09
2023-03-01T00:51:32.940Z,99965.69
2023-03-01T00:54:01.536Z,99964.88
2023-03-01T00:56:29.072Z,99957.91
2023-03-01T00:58:55.909Z,99957.81
2023-03-01T01:01:28.176Z,99956.06
2023-03-01T01:03:56.850Z,99952.66
2023-03-01T01:06:29.201Z,99964.19
2023-03-01T01:08:56.269Z,99960.75
2023-03-01T01:11:24.566Z,99963.41
2023-03-01T01:13:51.501Z,99962.66
2023-03-01T01:16:19.160Z,99959.09
2023-03-01T01:18:46.121Z,99961.88
2023-03-01T01:21:15.150Z,99957.38
2023-03-01T01:23:42.104Z,99965.44
2023-03-01T01:26:11.343Z,99953.09
2023-03-01T01:28:38.251Z,99951.28
2023-03-01T01:31:06.060Z,99954.03
2023-03-01T01:33:32.954Z,99949.69
2023-03-01T01:36:00.000Z,99949.69
2023-03-01T01:38:26.832Z,99946.22
2023-03-01T01:40:53.934Z,99949.63
2023-03-01T01:43:36.448Z,99945.38
2023-03-01T01:46:23.894Z,99944.44
2023-03-01T01:48:59.800Z,99934.88
2023-03-01T01:51:30.134Z,99932.28
2023-03-01T01:53:59.626Z,99932.31
2023-03-01T01:56:26.754Z,99926.97
2023-03-01T01:58:53.695Z,99927.97
2023-03-01T02:01:20.966Z,99923.53
2023-03-01T02:03:47.795Z,99926.16
2023-03-01T02:06:37.197Z,99926.22
2023-03-01T02:09:08.216Z,99931.63
2023-03-01T02:11:35.229Z,99928.06
2023-03-01T02:14:02.044Z,99925.44
2023-03-01T02:16:30.432Z,99919.31
2023-03-01T02:18:57.649Z,99914.94
2023-03-01T02:21:31.087Z,99912.19
2023-03-01T02:23:59.517Z,99908.81
2023-03-01T02:26:41.332Z,99905.34
2023-03-01T02:29:08.075Z,99900.84
2023-03-01T02:31:44.500Z,99900.09
2023-03-01T02:34:22.375Z,99899.31
2023-03-01T02:37:14.080Z,99894.88
2023-03-01T02:39:43.432Z,99897.56
2023-03-01T02:42:15.651Z,99894.06
2023-03-01T02:44:42.393Z,99896.78
2023-03-01T02:47:09.438Z,99892.34
2023-03-01T02:49:37.239Z,99895.97
2023-03-01T02:52:42.952Z,99899.59
2023-03-01T02:55:11.676Z,99903.13
2023-03-01T02:57:40.453Z,99901.44
2023-03-01T03:00:41.197Z,99904.91
2023-03-01T03:03:08.422Z,99897.13
2023-03-01T03:05:35.317Z,99896.31
2023-03-01T03:08:03.210Z,99903.41
2023-03-01T03:10:35.598Z,99895.44
2023-03-01T03:13:04.620Z,99893.69
2023-03-01T03:15:31.567Z,99886.66
2023-03-01T03:17:59.124Z,99880.53
2023-03-01T03:20:27.118Z,99885.84
2023-03-01T03:22:55.031Z,99888.53
2023-03-01T03:25:22.097Z,99891.22
2023-03-01T03:27:49.848Z,99884.16
2023-03-01T03:30:19.419Z,99893.03
2023-03-01T03:32:53.288Z,99892.13
2023-03-01T03:35:33.532Z,99889.59
2023-03-01T03:38:04.741Z,99891.31
2023-03-01T03:40:38.861Z,99886.94
2023-03-01T03:43:24.537Z,99895.88
2023-03-01T03:45:51.972Z,99887.00
2023-03-01T03:48:19.162Z,99895.97
2023-03-01T03:50:50.837Z,99886.19
2023-03-01T03:53:18.017Z,99883.63
2023-03-01T03:55:45.510Z,99887.25
2023-03-01T03:58:12.563Z,99889.03
2023-03-01T04:00:44.281Z,99881.97
2023-03-01T04:03:12.410Z,99887.34
2023-03-01T04:05:39.664Z,99880.31
2023-03-01T04:08:08.273Z,99879.53
2023-03-01T04:10:37.302Z,99876.81
2023-03-01T04:13:05.359Z,99867.91
2023-03-01T04:15:33.386Z,99872.34
2023-03-01T04:18:00.692Z,99877.59
2023-03-01T04:20:29.483Z,99878.69
2023-03-01T04:23:13.948Z,99883.09
2023-03-01T04:25:42.079Z,99884.16
2023-03-01T04:28:10.084Z,99880.66
2023-03-01T04:30:37.652Z,99885.03
2023-03-01T04:33:08.805Z,99893.00
2023-03-01T04:35:35.952Z,99898.41
2023-03-01T04:38:03.763Z,99901.06
2023-03-01T04:40:30.514Z,99893.22
2023-03-01T04:42:57.586Z,99888.66
2023-03-01T04:45:24.484Z,99889.56
2023-03-01T04:47:53.179Z,99887.88
2023-03-01T04:50:24.437Z,99882.63
2023-03-01T04:52:51.542Z,99885.38
2023-03-01T04:55:18.571Z,99880.84
2023-03-01T04:57:45.687Z,99887.16
2023-03-01T05:00:21.093Z,99888.06
2023-03-01T05:02:55.404Z,99895.06
2023-03-01T05:05:31.379Z,99883.59
2023-03-01T05:08:03.037Z,99889.91
2023-03-01T05:10:30.591Z,99877.47
2023-03-01T05:13:01.009Z,99879.25
2023-03-01T05:15:28.839Z,99879.34
2023-03-01T05:17:58.039Z,99875.03
2023-03-01T05:20:24.994Z,99877.69
2023-03-01T05:22:52.860Z,99871.53
2023-03-01T05:25:19.617Z,99872.44
2023-03-01T05:27:46.715Z,99868.84
2023-03-01T05:30:17.092Z,99876.03
2023-03-01T05:32:46.607Z,99872.56
2023-03-01T05:35:16.909Z,99877.88
2023-03-01T05:37:44.960Z,99874.31
2023-03-01T05:40:16.596Z,99876.94
2023-03-01T05:42:48.500Z,99876.97
2023-03-01T05:45:15.927Z,99877.84
2023-03-01T05:47:44.743Z,99877.84
2023-03-01T05:50:19.961Z,99884.13
2023-03-01T05:52:51.308Z,99876.81
2023-03-01T05:55:18.842Z,99882.22
2023-03-01T05:57:46.000Z,99880.59
2023-03-01T06:00:13.750Z,99884.09
2023-03-01T06:02:41.006Z,99888.56
2023-03-01T06:05:09.380Z,99880.63
2023-03-01T06:07:36.674Z,99882.31
2023-03-01T06:10:04.665Z,99884.03
2023-03-01T06:12:33.811Z,99878.72
2023-03-01T06:15:00.995Z,99885.78
2023-03-01T06:17:30.508Z,99885.78
2023-03-01T06:19:57.420Z,99891.16
2023-03-01T06:22:24.581Z,99879.59
2023-03-01T06:24:51.361Z,99884.91
2023-03-01T06:27:18.442Z,99894.63
2023-03-01T06:29:45.639Z,99899.84
2023-03-01T06:32:12.773Z,99898.94
2023-03-01T06:34:39.561Z,99901.59
2023-03-01T06:37:07.547Z,99898.94
2023-03-01T06:39:34.369Z,99898.94
2023-03-01T06:42:01.512Z,99905.09
2023-03-01T06:44:28.455Z,99904.16
2023-03-01T06:46:55.596Z,99901.47
2023-03-01T06:49:22.587Z,99894.38
2023-03-01T06:51:49.689Z,99897.84
2023-03-01T06:54:16.470Z,99893.34
2023-03-01T06:56:43.520Z,99907.44
2023-03-01T06:59:10.328Z,99909.06
2023-03-01T07:01:37.410Z,99909.09
2023-03-01T07:04:04.361Z,99905.53
2023-03-01T07:06:31.817Z,99897.56
2023-03-01T07:08:58.769Z,99899.16
2023-03-01T07:11:25.894Z,99891.19
2023-03-01T07:13:52.673Z,99901.63
2023-03-01T07:16:21.389Z,99894.56
2023-03-01T07:18:48.160Z,99887.38
2023-03-01T07:21:15.793Z,99890.72
2023-03-01T07:23:42.513Z,99901.22
2023-03-01T07:26:09.538Z,99897.66
2023-03-01T07:28:40.148Z,99891.41
2023-03-01T07:31:07.268Z,99890.47
2023-03-01T07:33:34.022Z,99886.81
2023-03-01T07:36:02.402Z,99887.66
2023-03-01T07:38:29.729Z,99887.53
2023-03-01T07:41:03.825Z,99884.78
2023-03-01T07:43:30.830Z,99879.31
2023-03-01T07:46:01.928Z,99883.66
2023-03-01T07:48:29.284Z,99882.50
2023-03-01T07:50:59.795Z,99870.00
2023-03-01T07:53:26.550Z,99868.94
2023-03-01T07:56:06.637Z,99877.69
2023-03-01T07:58:35.837Z,99868.59
2023-03-01T08:01:04.124Z,99859.63
2023-03-01T08:03:30.852Z,99856.75
2023-03-01T08:06:00.519Z,99855.72
2023-03-01T08:08:27.369Z,99851.09
2023-03-01T08:10:57.635Z,99842.06
2023-03-01T08:13:24.379Z,99837.38
2023-03-01T08:15:51.459Z,99840.78
2023-03-01T08:18:19.027Z,99837.94
2023-03-01T08:20:46.388Z,99835.97
2023-03-01T08:23:13.277Z,99835.75
2023-03-01T08:25:40.644Z,99842.63
2023-03-01T08:28:07.412Z,99840.66
2023-03-01T08:30:35.181Z,99833.34
2023-03-01T08:33:02.039Z,99839.38
2023-03-01T08:35:29.144Z,99839.19
2023-03-01T08:37:55.926Z,99838.97
2023-03-01T08:40:23.098Z,99832.97
2023-03-01T08:42:49.929Z,99827.94
2023-03-01T08:45:19.248Z,99828.09
2023-03-01T08:47:46.294Z,99837.44
2023-03-01T08:50:13.407Z,99831.50
2023-03-01T08:52:40.234Z,99835.50
2023-03-01T08:55:08.131Z,99833.91
2023-03-01T08:57:34.934Z,99835.59
2023-03-01T09:00:01.992Z,99832.81
2023-03-01T09:02:29.027Z,99829.13
2023-03-01T09:04:56.152Z,99830.75
2023-03-01T09:07:22.893Z,99826.16
2023-03-01T09:09:49.988Z,99821.53
2023-03-01T09:12:16.771Z,99827.53
2023-03-01T09:14:43.886Z,99816.56
2023-03-01T09:17:10.763Z,99819.13
2023-03-01T09:19:38.153Z,99820.59
2023-03-01T09:22:05.679Z,99819.41
2023-03-01T09:24:32.748Z,99819.16
2023-03-01T09:26:59.503Z,99821.44
2023-03-01T09:29:26.990Z,99815.94
2023-03-01T09:31:56.265Z,99814.75
2023-03-01T09:34:24.478Z,99810.88
2023-03-01T09:36:52.148Z,99810.56
2023-03-01T09:39:19.262Z,99807.66
2023-03-01T09:41:58.808Z,99809.03
2023-03-01T09:44:32.137Z,99803.38
2023-03-01T09:46:59.252Z,99799.50
2023-03-01T09:49:28.252Z,99810.72
2023-03-01T09:52:15.054Z,99803.25
2023-03-01T09:54:42.109Z,99806.53
2023-03-01T09:57:27.674Z,99807.09
2023-03-01T10:00:17.063Z,99811.16
2023-03-01T10:02:50.885Z,99808.88
2023-03-01T10:06:07.480Z,99805.81
2023-03-01T10:08:49.574Z,99806.16
2023-03-01T10:11:28.343Z,99806.69
2023-03-01T10:14:07.020Z,99804.72
2023-03-01T10:16:40.180Z,99796.84
2023-03-01T10:19:07.678Z,99800.19
2023-03-01T10:21:37.207Z,99787.16
2023-03-01T10:24:13.193Z,99793.78
2023-03-01T10:26:57.700Z,99789.84
2023-03-01T10:29:31.949Z,99787.53
2023-03-01T10:31:59.019Z,99780.94
2023-03-01T10:34:31.105Z,99781.44
2023-03-01T10:37:02.049Z,99773.31
2023-03-01T10:39:28.919Z,99769.50
2023-03-01T10:42:06.649Z,99775.31
2023-03-01T10:44:48.405Z,99772.19
2023-03-01T10:47:24.353Z,99777.50
2023-03-01T10:50:05.675Z,99775.53
2023-03-01T10:52:33.920Z,99770.94
2023-03-01T10:55:03.541Z,99768.19
2023-03-01T10:57:33.305Z,99760.00
2023-03-01T11:00:23.377Z,99755.75
2023-03-01T11:02:59.539Z,99751.78
2023-03-01T11:05:26.709Z,99751.63
2023-03-01T11:07:56.094Z,99749.66
2023-03-01T11:10:41.153Z,99741.38
2023-03-01T11:13:18.546Z,99742.16
2023-03-01T11:16:00.033Z,99728.97
2023-03-01T11:18:44.339Z,99730.72
2023-03-01T11:21:12.875Z,99729.34
2023-03-01T11:23:39.971Z,99729.97
2023-03-01T11:26:10.719Z,99724.44
2023-03-01T11:28:38.978Z,99721.56
2023-03-01T11:31:12.672Z,99723.16
2023-03-01T11:33:58.868Z,99718.53
2023-03-01T11:36:34.780Z,99721.13
2023-03-01T11:39:10.062Z,99721.59
2023-03-01T11:41:37.617Z,99717.44
2023-03-01T11:44:15.343Z,99717.44
2023-03-01T11:47:09.809Z,99710.53
2023-03-01T11:49:58.849Z,99709.94
2023-03-01T11:52:31.436Z,99705.09
2023-03-01T11:55:30.060Z,99705.34
2023-03-01T11:58:47.617Z,99702.81
2023-03-01T12:01:59.532Z,99697.00
2023-03-01T12:04:35.179Z,99696.84
2023-03-01T12:07:07.065Z,99695.78
2023-03-01T12:09:45.951Z,99698.22
2023-03-01T12:12:31.787Z,99697.63
2023-03-01T12:15:21.880Z,99687.63
2023-03-01T12:18:10.955Z,99686.84
2023-03-01T12:21:03.153Z,99682.84
2023-03-01T12:23:45.440Z,99684.56
2023-03-01T12:26:29.085Z,99680.31
2023-03-01T12:29:01.193Z,99685.22
2023-03-01T12:31:37.333Z,99674.09
2023-03-01T12:34:22.772Z,99671.16
2023-03-01T12:36:58.719Z,99668.13
2023-03-01T12:39:47.223Z,99667.06
2023-03-01T12:42:32.864Z,99668.25
2023-03-01T12:45:18.211Z,99661.22
2023-03-01T12:48:06.382Z,99647.91
2023-03-01T12:50:44.813Z,99644.81
2023-03-01T12:53:32.305Z,99635.53
2023-03-01T12:56:07.346Z,99643.38
2023-03-01T12:58:48.820Z,99638.88
2023-03-01T13:01:38.343Z,99637.75
2023-03-01T13:04:19.331Z,99637.38
2023-03-01T13:06:57.268Z,99631.81
2023-03-01T13:09:25.740Z,99638.06
2023-03-01T13:11:52.821Z,99632.75
2023-03-01T13:14:44.644Z,99631.13
2023-03-01T13:17:31.042Z,99625.16
2023-03-01T13:19:59.091Z,99627.59
2023-03-01T13:22:29.094Z,99632.19
2023-03-01T13:25:03.553Z,99635.47
2023-03-01T13:27:30.725Z,99623.34
2023-03-01T13:30:02.026Z,99624.59
2023-03-01T13:32:43.140Z,99619.41
2023-03-01T13:35:17.978Z,99615.44
2023-03-01T13:37:45.429Z,99616.00
2023-03-01T13:40:19.653Z,99612.75
2023-03-01T13:43:04.577Z,99614.09
2023-03-01T13:45:42.272Z,99604.94
2023-03-01T13:48:17.675Z,99602.44
2023-03-01T13:50:54.003Z,99605.13
2023-03-01T13:53:23.865Z,99608.59
2023-03-01T13:55:54.829Z,99610.34
2023-03-01T13:58:26.797Z,99613.78
2023-03-01T14:01:05.459Z,99600.03
2023-03-01T14:03:34.158Z,99599.38
2023-03-01T14:06:14.846Z,99601.78
2023-03-01T14:08:43.166Z,99595.41
2023-03-01T14:11:44.122Z,99591.00
2023-03-01T14:14:29.658Z,99597.06
2023-03-01T14:17:15.025Z,99598.59
2023-03-01T14:19:45.910Z,99597.44
2023-03-01T14:22:23.363Z,99596.47
2023-03-01T14:24:59.170Z,99594.63
2023-03-01T14:27:44.349Z,99591.09
2023-03-01T14:30:33.779Z,99586.56
2023-03-01T14:33:02.287Z,99578.66
2023-03-01T14:35:34.921Z,99573.06
2023-03-01T14:38:02.018Z,99574.03
2023-03-01T14:40:33.242Z,99579.31
2023-03-01T14:43:01.224Z,99576.16
2023-03-01T14:45:29.393Z,99573.94
2023-03-01T14:47:57.105Z,99574.03
2023-03-01T14:50:34.828Z,99572.22
2023-03-01T14:53:05.293Z,99573.94
2023-03-01T14:55:33.525Z,99569.53
2023-03-01T14:58:03.151Z,99566.72
2023-03-01T15:00:31.456Z,99576.63
2023-03-01T15:03:01.606Z,99574.91
2023-03-01T15:05:32.945Z,99573.16
2023-03-01T15:08:01.255Z,99568.06
2023-03-01T15:10:31.545Z,99566.16
2023-03-01T15:13:13.871Z,99566.25
2023-03-01T15:15:47.704Z,99568.06
2023-03-01T15:18:16.212Z,99555.56
2023-03-01T15:20:43.619Z,99560.16
2023-03-01T15:23:27.969Z,99557.47
2023-03-01T15:25:58.531Z,99564.81
2023-03-01T15:28:30.696Z,99561.44
2023-03-01T15:31:20.236Z,99568.09
2023-03-01T15:33:48.382Z,99561.72
2023-03-01T15:36:31.250Z,99570.59
2023-03-01T15:38:59.264Z,99567.13
2023-03-01T15:41:39.670Z,99568.97
2023-03-01T15:44:29.988Z,99571.84
2023-03-01T15:47:02.475Z,99563.00
2023-03-01T15:49:54.471Z,99556.75
2023-03-01T15:52:32.344Z,99561.44
2023-03-01T15:55:03.493Z,99561.44
2023-03-01T15:57:30.771Z,99561.75
2023-03-01T15:59:57.581Z,99570.78
2023-03-01T16:02:25.325Z,99564.66
2023-03-01T16:04:52.272Z,99562.03
2023-03-01T16:07:19.376Z,99566.00
2023-03-01T16:09:46.265Z,99566.91
2023-03-01T16:12:16.839Z,99564.31
2023-03-01T16:14:43.749Z,99568.94
2023-03-01T16:17:11.324Z,99562.78
2023-03-01T16:19:39.014Z,99563.84
2023-03-01T16:22:06.093Z,99564.03
2023-03-01T16:24:32.882Z,99563.25
2023-03-01T16:27:00.058Z,99560.84
2023-03-01T16:29:27.139Z,99563.72
2023-03-01T16:31:54.415Z,99556.72
2023-03-01T16:34:22.883Z,99557.84
2023-03-01T16:36:50.169Z,99559.94
2023-03-01T16:39:17.633Z,99559.28
2023-03-01T16:41:44.894Z,99561.38
2023-03-01T16:44:11.651Z,99568.03
2023-03-01T16:46:38.811Z,99574.53
2023-03-01T16:49:05.604Z,99566.75
2023-03-01T16:51:35.660Z,99584.81
2023-03-01T16:54:02.988Z,99579.81
2023-03-01T16:56:31.275Z,99592.59
2023-03-01T16:58:58.257Z,99589.28
2023-03-01T17:01:26.887Z,99599.44
2023-03-01T17:03:53.737Z,99596.97
2023-03-01T17:06:21.646Z,99604.53
2023-03-01T17:08:48.460Z,99602.94
2023-03-01T17:11:20.031Z,99601.31
2023-03-01T17:13:47.073Z,99601.59
2023-03-01T17:16:15.778Z,99605.38
2023-03-01T17:18:42.785Z,99603.00
2023-03-01T17:21:10.174Z,99608.63
2023-03-01T17:23:37.812Z,99605.25
2023-03-01T17:26:05.105Z,99604.66
2023-03-01T17:28:32.794Z,99607.50
2023-03-01T17:31:00.776Z,99608.69
2023-03-01T17:33:27.698Z,99610.59
2023-03-01T17:35:54.970Z,99607.22
2023-03-01T17:39:36.623Z,99608.53
2023-03-01T17:42:05.233Z,99615.91
2023-03-01T17:44:34.573Z,99615.38
2023-03-01T17:47:02.952Z,99613.88
2023-03-01T17:49:30.151Z,99607.78
2023-03-01T17:51:57.589Z,99609.69
2023-03-01T17:54:24.711Z,99606.22
2023-03-01T17:56:52.172Z,99607.34
2023-03-01T17:59:19.384Z,99596.84
2023-03-01T18:01:46.823Z,99603.41
2023-03-01T18:04:13.862Z,99601.78
2023-03-01T18:06:41.152Z,99600.19
2023-03-01T18:09:08.253Z,99599.50
2023-03-01T18:11:35.626Z,99596.97
2023-03-01T18:14:02.796Z,99590.91
2023-03-01T18:16:32.532Z,99592.13
2023-03-01T18:19:00.203Z,99593.22
2023-03-01T18:21:41.062Z,99585.41
2023-03-01T18:24:07.904Z,99580.13
2023-03-01T18:26:35.678Z,99573.19
2023-03-01T18:29:04.888Z,99577.16
2023-03-01T18:31:33.574Z,99578.16
2023-03-01T18:34:03.541Z,99581.91
2023-03-01T18:36:32.657Z,99572.25
2023-03-01T18:38:59.731Z,99577.94
2023-03-01T18:41:27.652Z,99572.69
2023-03-01T18:43:54.722Z,99571.16
2023-03-01T18:46:22.221Z,99572.28
2023-03-01T18:48:49.071Z,99571.59
2023-03-01T18:51:18.351Z,99566.38
2023-03-01T18:53:45.296Z,99568.34
2023-03-01T18:56:12.523Z,99572.91
2023-03-01T18:58:39.614Z,99569.69
2023-03-01T19:01:08.429Z,99574.41
2023-03-01T19:03:35.589Z,99574.66
2023-03-01T19:06:02.804Z,99579.22
2023-03-01T19:08:31.469Z,99584.84
2023-03-01T19:11:02.176Z,99585.06
2023-03-01T19:13:29.014Z,99590.56
2023-03-01T19:16:23.938Z,99588.81
2023-03-01T19:18:51.702Z,99578.56
2023-03-01T19:21:20.258Z,99582.19
2023-03-01T19:23:48.629Z,99585.28
2023-03-01T19:26:16.958Z,99589.09
2023-03-01T19:28:44.336Z,99580.19
2023-03-01T19:31:16.622Z,99582.03
2023-03-01T19:33:43.525Z,99582.16
2023-03-01T19:36:11.713Z,99575.19
2023-03-01T19:38:39.188Z,99586.00
2023-03-01T19:41:07.374Z,99595.06
2023-03-01T19:43:34.268Z,99597.03
2023-03-01T19:46:01.730Z,99582.91
2023-03-01T19:48:28.859Z,99591.09
2023-03-01T19:50:56.252Z,99590.63
2023-03-01T19:53:23.257Z,99583.59
2023-03-01T19:55:53.145Z,99581.38
2023-03-01T19:58:20.136Z,99583.09
2023-03-01T20:00:47.480Z,99578.84
2023-03-01T20:03:14.423Z,99582.31
2023-03-01T20:05:42.965Z,99581.97
2023-03-01T20:08:09.800Z,99584.53
2023-03-01T20:10:36.884Z,99583.69
2023-03-01T20:13:03.934Z,99588.31
2023-03-01T20:15:31.206Z,99583.09
2023-03-01T20:17:58.056Z,99586.88
2023-03-01T20:20:25.227Z,99587.06
2023-03-01T20:22:52.178Z,99590.91
2023-03-01T20:25:19.342Z,99581.84
2023-03-01T20:27:47.527Z,99572.97
2023-03-01T20:30:15.421Z,99578.53
2023-03-01T20:32:42.455Z,99579.75
2023-03-01T20:35:10.335Z,99589.09
2023-03-01T20:37:37.491Z,99574.69
2023-03-01T20:40:05.274Z,99568.59
2023-03-01T20:42:32.154Z,99573.94
2023-03-01T20:44:59.283Z,99570.63
2023-03-01T20:47:26.321Z,99572.69
2023-03-01T20:49:53.805Z,99577.97
2023-03-01T20:52:20.640Z,99581.53
2023-03-01T20:54:47.776Z,99584.47
2023-03-01T20:57:14.765Z,99581.13
2023-03-01T20:59:42.168Z,99584.81
2023-03-01T21:02:10.766Z,99578.75
2023-03-01T21:04:37.961Z,99585.13
2023-03-01T21:07:04.737Z,99579.72
2023-03-01T21:09:31.861Z,99581.59
2023-03-01T21:11:58.728Z,99586.16
2023-03-01T21:14:25.857Z,99587.50
2023-03-01T21:16:52.693Z,99593.78
2023-03-01T21:19:22.468Z,99591.03
2023-03-01T21:21:50.398Z,99592.25
2023-03-01T21:27:53.608Z,99591.03
2023-03-01T21:30:32.066Z,99590.13
2023-03-01T21:32:59.967Z,99592.81
2023-03-01T21:35:27.230Z,99587.47
2023-03-01T21:37:54.028Z,99588.47
2023-03-01T21:40:21.112Z,99584.00
2023-03-01T21:42:49.677Z,99590.59
2023-03-01T21:45:16.918Z,99582.66
2023-03-01T21:47:43.721Z,99579.25
2023-03-01T21:50:11.538Z,99575.91
2023-03-01T21:52:38.265Z,99578.50
2023-03-01T21:55:05.742Z,99573.34
2023-03-01T21:57:32.626Z,99576.88
2023-03-01T21:59:59.689Z,99573.47
2023-03-01T22:02:26.560Z,99582.56
2023-03-01T22:05:11.995Z,99581.72
2023-03-01T22:07:39.303Z,99582.00
2023-03-01T22:10:07.599Z,99581.78
2023-03-01T22:12:34.706Z,99582.25
2023-03-01T22:15:01.469Z,99587.47
2023-03-01T22:17:28.832Z,99573.59
2023-03-01T22:19:55.550Z,99580.75
2023-03-01T22:22:22.601Z,99576.34
2023-03-01T22:24:49.355Z,99579.94
2023-03-01T22:27:16.459Z,99577.47
2023-03-01T22:29:43.453Z,99581.06
2023-03-01T22:32:10.659Z,99575.03
2023-03-01T22:34:37.594Z,99575.03
2023-03-01T22:37:04.679Z,99580.44
2023-03-01T22:39:31.539Z,99586.69
2023-03-01T22:41:58.568Z,99591.34
2023-03-01T22:44:25.369Z,99582.78
2023-03-01T22:46:52.935Z,99585.31
2023-03-01T22:49:19.980Z,99581.31
2023-03-01T22:51:50.025Z,99586.72
2023-03-01T22:54:17.323Z,99583.94
2023-03-01T22:56:44.465Z,99585.88
2023-03-01T22:59:13.461Z,99585.00
2023-03-01T23:01:41.864Z,99587.84
2023-03-01T23:04:08.677Z,99587.09
2023-03-01T23:06:50.637Z,99585.22
2023-03-01T23:09:18.413Z,99580.00
2023-03-01T23:11:45.583Z,99582.72
2023-03-01T23:14:12.415Z,99579.16
2023-03-01T23:16:39.750Z,99581.06
2023-03-01T23:19:06.627Z,99575.03
2023-03-01T23:21:33.712Z,99576.97
2023-03-01T23:24:00.485Z,99583.22
2023-03-01T23:26:28.475Z,99574.66
2023-03-01T23:28:56.210Z,99583.44
2023-03-01T23:31:23.356Z,99581.84
2023-03-01T23:33:50.203Z,99573.25
2023-03-01T23:36:23.047Z,99572.38
2023-03-01T23:38:51.462Z,99580.16
2023-03-01T23:41:20.286Z,99569.03
2023-03-01T23:43:48.208Z,99575.16
2023-03-01T23:46:15.784Z,99566.16
2023-03-01T23:48:43.087Z,99569.09
2023-03-01T23:51:10.392Z,99569.94
2023-03-01T23:53:39.525Z,99564.00
2023-03-01T23:56:07.269Z,99556.88
2023-03-01T23:58:34.066Z,99563.41
